sensor_id;sensor_type;location;lat;lon;timestamp;P1;durP1;ratioP1;P2;durP2;ratioP2
20567;SDS011;10442;49.932;11.592;2023-03-01T00:01:21;15.83;;;12.83;;
20567;SDS011;10442;49.932;11.592;2023-03-01T00:03:51;15.97;;;12.83;;
20567;SDS011;10442;49.932;11.592;2023-03-01T00:06:19;14.50;;;12.87;;
20567;SDS011;10442;49.932;11.592;2023-03-01T00:08:47;13.33;;;11.73;;
20567;SDS011;10442;49.932;11.592;2023-03-01T00:13:46;19.13;;;14.23;;
20567;SDS011;10442;49.932;11.592;2023-03-01T00:16:18;16.00;;;12.43;;
20567;SDS011;10442;49.932;11.592;2023-03-01T00:18:50;14.70;;;13.07;;
20567;SDS011;10442;49.932;11.592;2023-03-01T00:21:18;15.00;;;13.20;;
20567;SDS011;10442;49.932;11.592;2023-03-01T00:23:48;16.80;;;13.40;;
20567;SDS011;10442;49.932;11.592;2023-03-01T00:26:16;14.47;;;11.43;;
20567;SDS011;10442;49.932;11.592;2023-03-01T00:28:45;17.50;;;13.80;;
20567;SDS011;10442;49.932;11.592;2023-03-01T00:31:20;16.50;;;12.27;;
20567;SDS011;10442;49.932;11.592;2023-03-01T00:33:51;15.17;;;11.43;;
20567;SDS011;10442;49.932;11.592;2023-03-01T00:36:24;17.30;;;13.50;;
20567;SDS011;10442;49.932;11.592;2023-03-01T00:38:53;15.03;;;13.03;;
20567;SDS011;10442;49.932;11.592;2023-03-01T00:41:21;15.43;;;12.60;;
20567;SDS011;10442;49.932;11.592;2023-03-01T00:43:49;16.03;;;11.20;;
20567;SDS011;10442;49.932;11.592;2023-03-01T00:46:18;13.47;;;12.07;;
20567;SDS011;10442;49.932;11.592;2023-03-01T00:48:48;14.33;;;12.50;;
20567;SDS011;10442;49.932;11.592;2023-03-01T00:51:20;13.43;;;11.17;;
20567;SDS011;10442;49.932;11.592;2023-03-01T00:53:53;16.47;;;12.67;;
20567;SDS011;10442;49.932;11.592;2023-03-01T00:56:22;14.97;;;12.00;;
20567;SDS011;10442;49.932;11.592;2023-03-01T00:58:49;15.33;;;13.30;;
20567;SDS011;10442;49.932;11.592;2023-03-01T01:01:19;16.07;;;12.67;;
20567;SDS011;10442;49.932;11.592;2023-03-01T01:03:50;16.43;;;12.63;;
20567;SDS011;10442;49.932;11.592;2023-03-01T01:06:21;13.97;;;12.43;;
20567;SDS011;10442;49.932;11.592;2023-03-01T01:08:51;16.03;;;12.57;;
20567;SDS011;10442;49.932;11.592;2023-03-01T01:11:20;15.37;;;11.83;;
20567;SDS011;10442;49.932;11.592;2023-03-01T01:13:48;16.70;;;13.37;;
20567;SDS011;10442;49.932;11.592;2023-03-01T01:16:17;16.57;;;12.47;;
20567;SDS011;10442;49.932;11.592;2023-03-01T01:18:46;17.13;;;12.03;;
20567;SDS011;10442;49.932;11.592;2023-03-01T01:21:14;13.27;;;10.97;;
20567;SDS011;10442;49.932;11.592;2023-03-01T01:23:44;21.00;;;13.70;;
20567;SDS011;10442;49.932;11.592;2023-03-01T01:26:13;16.63;;;13.47;;
20567;SDS011;10442;49.932;11.592;2023-03-01T01:28:49;15.10;;;12.30;;
20567;SDS011;10442;49.932;11.592;2023-03-01T01:31:17;15.20;;;12.43;;
20567;SDS011;10442;49.932;11.592;2023-03-01T01:33:46;14.23;;;12.07;;
20567;SDS011;10442;49.932;11.592;2023-03-01T01:36:13;16.70;;;11.27;;
20567;SDS011;10442;49.932;11.592;2023-03-01T01:38:41;14.77;;;11.13;;
20567;SDS011;10442;49.932;11.592;2023-03-01T01:41:09;17.20;;;12.60;;
20567;SDS011;10442;49.932;11.592;2023-03-01T01:43:39;12.07;;;10.30;;
20567;SDS011;10442;49.932;11.592;2023-03-01T01:46:15;16.47;;;12.07;;
20567;SDS011;10442;49.932;11.592;2023-03-01T01:48:54;15.33;;;12.57;;
20567;SDS011;10442;49.932;11.592;2023-03-01T01:51:27;16.17;;;12.90;;
20567;SDS011;10442;49.932;11.592;2023-03-01T01:54:06;16.27;;;13.03;;
20567;SDS011;10442;49.932;11.592;2023-03-01T01:56:49;14.30;;;11.87;;
20567;SDS011;10442;49.932;11.592;2023-03-01T01:59:22;17.13;;;12.43;;
20567;SDS011;10442;49.932;11.592;2023-03-01T02:01:52;21.47;;;12.87;;
20567;SDS011;10442;49.932;11.592;2023-03-01T02:04:21;19.90;;;14.60;;
20567;SDS011;10442;49.932;11.592;2023-03-01T02:07:23;17.83;;;13.50;;
20567;SDS011;10442;49.932;11.592;2023-03-01T02:09:45;14.33;;;12.23;;
20567;SDS011;10442;49.932;11.592;2023-03-01T02:12:15;17.20;;;13.70;;
20567;SDS011;10442;49.932;11.592;2023-03-01T02:14:45;13.63;;;11.30;;
20567;SDS011;10442;49.932;11.592;2023-03-01T02:17:12;14.93;;;12.63;;
20567;SDS011;10442;49.932;11.592;2023-03-01T02:19:46;17.03;;;12.10;;
20567;SDS011;10442;49.932;11.592;2023-03-01T02:22:35;14.93;;;11.83;;
20567;SDS011;10442;49.932;11.592;2023-03-01T02:27:37;15.63;;;12.87;;
20567;SDS011;10442;49.932;11.592;2023-03-01T02:30:11;14.63;;;12.50;;
20567;SDS011;10442;49.932;11.592;2023-03-01T02:32:40;15.47;;;12.63;;
20567;SDS011;10442;49.932;11.592;2023-03-01T02:35:12;18.23;;;13.20;;
20567;SDS011;10442;49.932;11.592;2023-03-01T02:37:42;16.83;;;11.93;;
20567;SDS011;10442;49.932;11.592;2023-03-01T02:40:12;16.23;;;12.60;;
20567;SDS011;10442;49.932;11.592;2023-03-01T02:42:47;14.07;;;11.00;;
20567;SDS011;10442;49.932;11.592;2023-03-01T02:45:21;18.07;;;13.07;;
20567;SDS011;10442;49.932;11.592;2023-03-01T02:47:50;17.03;;;13.23;;
20567;SDS011;10442;49.932;11.592;2023-03-01T02:50:35;17.87;;;13.20;;
20567;SDS011;10442;49.932;11.592;2023-03-01T02:55:54;17.90;;;13.33;;
20567;SDS011;10442;49.932;11.592;2023-03-01T02:58:22;14.93;;;11.87;;
20567;SDS011;10442;49.932;11.592;2023-03-01T03:00:51;13.83;;;12.13;;
20567;SDS011;10442;49.932;11.592;2023-03-01T03:03:19;14.53;;;11.70;;
20567;SDS011;10442;49.932;11.592;2023-03-01T03:05:48;16.00;;;12.50;;
20567;SDS011;10442;49.932;11.592;2023-03-01T03:08:16;15.00;;;12.63;;
20567;SDS011;10442;49.932;11.592;2023-03-01T03:10:51;16.53;;;12.87;;
20567;SDS011;10442;49.932;11.592;2023-03-01T03:13:18;14.27;;;11.53;;
20567;SDS011;10442;49.932;11.592;2023-03-01T03:15:46;18.67;;;13.57;;
20567;SDS011;10442;49.932;11.592;2023-03-01T03:18:15;15.03;;;12.03;;
20567;SDS011;10442;49.932;11.592;2023-03-01T03:20:43;15.87;;;12.97;;
20567;SDS011;10442;49.932;11.592;2023-03-01T03:23:12;15.43;;;12.47;;
20567;SDS011;10442;49.932;11.592;2023-03-01T03:25:40;15.43;;;13.30;;
20567;SDS011;10442;49.932;11.592;2023-03-01T03:28:07;18.00;;;14.13;;
20567;SDS011;10442;49.932;11.592;2023-03-01T03:30:39;16.27;;;12.83;;
20567;SDS011;10442;49.932;11.592;2023-03-01T03:33:07;16.30;;;12.47;;
20567;SDS011;10442;49.932;11.592;2023-03-01T03:35:43;15.33;;;11.57;;
20567;SDS011;10442;49.932;11.592;2023-03-01T03:38:13;15.80;;;13.47;;
20567;SDS011;10442;49.932;11.592;2023-03-01T03:43:28;21.40;;;12.30;;
20567;SDS011;10442;49.932;11.592;2023-03-01T03:45:56;17.43;;;14.23;;
20567;SDS011;10442;49.932;11.592;2023-03-01T03:48:24;16.13;;;12.27;;
20567;SDS011;10442;49.932;11.592;2023-03-01T03:50:54;15.07;;;11.27;;
20567;SDS011;10442;49.932;11.592;2023-03-01T03:53:23;16.27;;;12.53;;
20567;SDS011;10442;49.932;11.592;2023-03-01T03:55:52;18.47;;;12.47;;
20567;SDS011;10442;49.932;11.592;2023-03-01T03:58:21;15.83;;;12.10;;
20567;SDS011;10442;49.932;11.592;2023-03-01T04:00:54;17.80;;;14.70;;
20567;SDS011;10442;49.932;11.592;2023-03-01T04:03:23;17.97;;;12.90;;
20567;SDS011;10442;49.932;11.592;2023-03-01T04:05:52;13.87;;;11.93;;
20567;SDS011;10442;49.932;11.592;2023-03-01T04:08:20;22.63;;;15.03;;
20567;SDS011;10442;49.932;11.592;2023-03-01T04:10:50;15.23;;;12.40;;
20567;SDS011;10442;49.932;11.592;2023-03-01T04:13:20;15.97;;;12.40;;
20567;SDS011;10442;49.932;11.592;2023-03-01T04:15:49;21.23;;;12.43;;
20567;SDS011;10442;49.932;11.592;2023-03-01T04:18:19;18.23;;;12.67;;
20567;SDS011;10442;49.932;11.592;2023-03-01T04:20:48;14.23;;;12.10;;
20567;SDS011;10442;49.932;11.592;2023-03-01T04:23:19;14.63;;;11.70;;
20567;SDS011;10442;49.932;11.592;2023-03-01T04:28:21;17.90;;;13.63;;
20567;SDS011;10442;49.932;11.592;2023-03-01T04:30:53;17.67;;;13.23;;
20567;SDS011;10442;49.932;11.592;2023-03-01T04:33:23;16.60;;;12.57;;
20567;SDS011;10442;49.932;11.592;2023-03-01T04:35:51;17.27;;;13.17;;
20567;SDS011;10442;49.932;11.592;2023-03-01T04:38:19;17.37;;;12.63;;
20567;SDS011;10442;49.932;11.592;2023-03-01T04:40:48;17.43;;;12.87;;
20567;SDS011;10442;49.932;11.592;2023-03-01T04:43:15;17.87;;;11.83;;
20567;SDS011;10442;49.932;11.592;2023-03-01T04:45:44;20.97;;;13.77;;
20567;SDS011;10442;49.932;11.592;2023-03-01T04:48:11;15.40;;;13.03;;
20567;SDS011;10442;49.932;11.592;2023-03-01T04:50:40;16.23;;;12.63;;
20567;SDS011;10442;49.932;11.592;2023-03-01T04:53:08;17.17;;;14.30;;
20567;SDS011;10442;49.932;11.592;2023-03-01T04:55:35;15.07;;;13.03;;
20567;SDS011;10442;49.932;11.592;2023-03-01T04:58:02;21.80;;;14.40;;
20567;SDS011;10442;49.932;11.592;2023-03-01T05:00:30;19.93;;;13.47;;
20567;SDS011;10442;49.932;11.592;2023-03-01T05:02:59;14.60;;;12.30;;
20567;SDS011;10442;49.932;11.592;2023-03-01T05:05:34;17.57;;;11.57;;
20567;SDS011;10442;49.932;11.592;2023-03-01T05:08:06;14.73;;;11.53;;
20567;SDS011;10442;49.932;11.592;2023-03-01T05:10:35;13.70;;;10.23;;
20567;SDS011;10442;49.932;11.592;2023-03-01T05:13:03;16.13;;;12.07;;
20567;SDS011;10442;49.932;11.592;2023-03-01T05:15:31;16.53;;;12.50;;
20567;SDS011;10442;49.932;11.592;2023-03-01T05:17:59;15.70;;;12.40;;
20567;SDS011;10442;49.932;11.592;2023-03-01T05:20:28;21.50;;;13.33;;
20567;SDS011;10442;49.932;11.592;2023-03-01T05:22:58;14.30;;;11.97;;
20567;SDS011;10442;49.932;11.592;2023-03-01T05:25:26;16.17;;;12.90;;
20567;SDS011;10442;49.932;11.592;2023-03-01T05:28:00;16.20;;;12.83;;
20567;SDS011;10442;49.932;11.592;2023-03-01T05:30:32;18.33;;;13.73;;
20567;SDS011;10442;49.932;11.592;2023-03-01T05:33:01;13.97;;;11.23;;
20567;SDS011;10442;49.932;11.592;2023-03-01T05:35:28;15.20;;;11.73;;
20567;SDS011;10442;49.932;11.592;2023-03-01T05:37:56;17.70;;;12.10;;
20567;SDS011;10442;49.932;11.592;2023-03-01T05:40:24;18.40;;;13.27;;
20567;SDS011;10442;49.932;11.592;2023-03-01T05:42:53;16.57;;;13.23;;
20567;SDS011;10442;49.932;11.592;2023-03-01T05:45:23;13.17;;;11.37;;
20567;SDS011;10442;49.932;11.592;2023-03-01T05:47:53;17.40;;;13.57;;
20567;SDS011;10442;49.932;11.592;2023-03-01T05:50:23;18.00;;;13.47;;
20567;SDS011;10442;49.932;11.592;2023-03-01T05:53:00;14.47;;;12.67;;
20567;SDS011;10442;49.932;11.592;2023-03-01T05:55:29;24.27;;;14.87;;
20567;SDS011;10442;49.932;11.592;2023-03-01T05:57:59;16.43;;;13.07;;
20567;SDS011;10442;49.932;11.592;2023-03-01T06:00:27;16.00;;;13.07;;
20567;SDS011;10442;49.932;11.592;2023-03-01T06:02:58;16.33;;;13.57;;
20567;SDS011;10442;49.932;11.592;2023-03-01T06:05:27;19.23;;;15.13;;
20567;SDS011;10442;49.932;11.592;2023-03-01T06:07:55;17.63;;;13.00;;
20567;SDS011;10442;49.932;11.592;2023-03-01T06:10:26;20.93;;;13.07;;
20567;SDS011;10442;49.932;11.592;2023-03-01T06:12:54;16.80;;;13.70;;
20567;SDS011;10442;49.932;11.592;2023-03-01T06:15:22;15.60;;;12.97;;
20567;SDS011;10442;49.932;11.592;2023-03-01T06:17:50;17.83;;;12.20;;
20567;SDS011;10442;49.932;11.592;2023-03-01T06:20:18;20.27;;;15.47;;
20567;SDS011;10442;49.932;11.592;2023-03-01T06:22:48;19.97;;;13.40;;
20567;SDS011;10442;49.932;11.592;2023-03-01T06:25:17;16.77;;;13.83;;
20567;SDS011;10442;49.932;11.592;2023-03-01T06:27:46;21.23;;;14.70;;
20567;SDS011;10442;49.932;11.592;2023-03-01T06:30:17;22.47;;;13.93;;
20567;SDS011;10442;49.932;11.592;2023-03-01T06:32:46;19.83;;;15.03;;
20567;SDS011;10442;49.932;11.592;2023-03-01T06:35:16;22.47;;;15.33;;
20567;SDS011;10442;49.932;11.592;2023-03-01T06:37:45;20.77;;;15.10;;
20567;SDS011;10442;49.932;11.592;2023-03-01T06:40:14;21.07;;;15.13;;
20567;SDS011;10442;49.932;11.592;2023-03-01T06:42:47;26.23;;;16.83;;
20567;SDS011;10442;49.932;11.592;2023-03-01T06:45:16;23.33;;;15.50;;
20567;SDS011;10442;49.932;11.592;2023-03-01T06:47:47;24.37;;;17.93;;
20567;SDS011;10442;49.932;11.592;2023-03-01T06:50:16;25.10;;;18.30;;
20567;SDS011;10442;49.932;11.592;2023-03-01T06:52:44;22.57;;;15.93;;
20567;SDS011;10442;49.932;11.592;2023-03-01T06:55:12;23.57;;;17.30;;
20567;SDS011;10442;49.932;11.592;2023-03-01T06:57:42;23.80;;;17.60;;
20567;SDS011;10442;49.932;11.592;2023-03-01T07:00:09;27.97;;;18.40;;
20567;SDS011;10442;49.932;11.592;2023-03-01T07:02:37;22.33;;;16.23;;
20567;SDS011;10442;49.932;11.592;2023-03-01T07:05:06;20.80;;;16.83;;
20567;SDS011;10442;49.932;11.592;2023-03-01T07:07:34;23.87;;;16.83;;
20567;SDS011;10442;49.932;11.592;2023-03-01T07:10:01;21.40;;;17.27;;
20567;SDS011;10442;49.932;11.592;2023-03-01T07:12:29;19.40;;;16.80;;
20567;SDS011;10442;49.932;11.592;2023-03-01T07:14:57;20.83;;;16.37;;
20567;SDS011;10442;49.932;11.592;2023-03-01T07:17:24;20.43;;;17.20;;
20567;SDS011;10442;49.932;11.592;2023-03-01T07:19:51;19.93;;;17.73;;
20567;SDS011;10442;49.932;11.592;2023-03-01T07:22:19;19.88;;;17.88;;
20567;SDS011;10442;49.932;11.592;2023-03-01T07:24:46;18.83;;;16.83;;
20567;SDS011;10442;49.932;11.592;2023-03-01T07:27:14;19.80;;;17.65;;
20567;SDS011;10442;49.932;11.592;2023-03-01T07:29:41;20.65;;;18.30;;
20567;SDS011;10442;49.932;11.592;2023-03-01T07:32:09;20.23;;;18.02;;
20567;SDS011;10442;49.932;11.592;2023-03-01T07:34:37;18.38;;;15.93;;
20567;SDS011;10442;49.932;11.592;2023-03-01T07:37:05;23.75;;;18.92;;
20567;SDS011;10442;49.932;11.592;2023-03-01T07:39:32;22.25;;;20.10;;
20567;SDS011;10442;49.932;11.592;2023-03-01T07:41:59;22.05;;;19.70;;
20567;SDS011;10442;49.932;11.592;2023-03-01T07:44:27;21.10;;;19.00;;
20567;SDS011;10442;49.932;11.592;2023-03-01T07:46:55;20.38;;;18.48;;
20567;SDS011;10442;49.932;11.592;2023-03-01T07:49:25;22.08;;;19.67;;
20567;SDS011;10442;49.932;11.592;2023-03-01T07:51:53;22.77;;;20.65;;
20567;SDS011;10442;49.932;11.592;2023-03-01T07:54:20;22.98;;;20.67;;
20567;SDS011;10442;49.932;11.592;2023-03-01T07:56:48;21.25;;;19.40;;
20567;SDS011;10442;49.932;11.592;2023-03-01T07:59:16;21.52;;;19.38;;
20567;SDS011;10442;49.932;11.592;2023-03-01T08:01:43;22.13;;;19.88;;
20567;SDS011;10442;49.932;11.592;2023-03-01T08:04:11;21.65;;;19.63;;
20567;SDS011;10442;49.932;11.592;2023-03-01T08:06:38;20.10;;;18.10;;
20567;SDS011;10442;49.932;11.592;2023-03-01T08:09:05;22.45;;;18.95;;
20567;SDS011;10442;49.932;11.592;2023-03-01T08:11:34;20.08;;;18.02;;
20567;SDS011;10442;49.932;11.592;2023-03-01T08:14:02;19.67;;;17.05;;
20567;SDS011;10442;49.932;11.592;2023-03-01T08:16:29;18.58;;;16.77;;
20567;SDS011;10442;49.932;11.592;2023-03-01T08:18:57;20.13;;;17.98;;
20567;SDS011;10442;49.932;11.592;2023-03-01T08:21:29;24.73;;;18.60;;
20567;SDS011;10442;49.932;11.592;2023-03-01T08:23:57;18.70;;;17.00;;
20567;SDS011;10442;49.932;11.592;2023-03-01T08:26:24;19.42;;;17.52;;
20567;SDS011;10442;49.932;11.592;2023-03-01T08:28:52;17.45;;;15.88;;
20567;SDS011;10442;49.932;11.592;2023-03-01T08:31:22;17.60;;;15.80;;
20567;SDS011;10442;49.932;11.592;2023-03-01T08:33:51;18.02;;;16.35;;
20567;SDS011;10442;49.932;11.592;2023-03-01T08:36:27;19.35;;;17.48;;
20567;SDS011;10442;49.932;11.592;2023-03-01T08:38:56;18.40;;;16.42;;
20567;SDS011;10442;49.932;11.592;2023-03-01T08:41:24;16.42;;;14.95;;
20567;SDS011;10442;49.932;11.592;2023-03-01T08:43:52;18.52;;;16.55;;
20567;SDS011;10442;49.932;11.592;2023-03-01T08:46:29;17.75;;;16.02;;
20567;SDS011;10442;49.932;11.592;2023-03-01T08:48:58;20.33;;;16.63;;
20567;SDS011;10442;49.932;11.592;2023-03-01T08:51:26;18.42;;;16.63;;
20567;SDS011;10442;49.932;11.592;2023-03-01T08:53:53;18.35;;;16.60;;
20567;SDS011;10442;49.932;11.592;2023-03-01T08:56:21;20.63;;;17.35;;
20567;SDS011;10442;49.932;11.592;2023-03-01T08:58:48;19.88;;;17.02;;
20567;SDS011;10442;49.932;11.592;2023-03-01T09:01:17;18.65;;;16.85;;
20567;SDS011;10442;49.932;11.592;2023-03-01T09:03:45;19.00;;;16.75;;
20567;SDS011;10442;49.932;11.592;2023-03-01T09:06:13;18.75;;;16.17;;
20567;SDS011;10442;49.932;11.592;2023-03-01T09:08:42;19.60;;;16.15;;
20567;SDS011;10442;49.932;11.592;2023-03-01T09:11:12;17.35;;;15.85;;
20567;SDS011;10442;49.932;11.592;2023-03-01T09:13:43;17.35;;;15.73;;
20567;SDS011;10442;49.932;11.592;2023-03-01T09:16:12;15.82;;;14.20;;
20567;SDS011;10442;49.932;11.592;2023-03-01T09:18:41;16.38;;;14.82;;
20567;SDS011;10442;49.932;11.592;2023-03-01T09:21:10;17.73;;;14.35;;
20567;SDS011;10442;49.932;11.592;2023-03-01T09:23:40;17.50;;;15.73;;
20567;SDS011;10442;49.932;11.592;2023-03-01T09:26:10;17.45;;;15.75;;
20567;SDS011;10442;49.932;11.592;2023-03-01T09:28:39;17.50;;;15.60;;
20567;SDS011;10442;49.932;11.592;2023-03-01T09:31:11;17.58;;;15.82;;
20567;SDS011;10442;49.932;11.592;2023-03-01T09:33:40;17.17;;;14.70;;
20567;SDS011;10442;49.932;11.592;2023-03-01T09:36:12;19.20;;;17.15;;
20567;SDS011;10442;49.932;11.592;2023-03-01T09:38:41;17.20;;;14.90;;
20567;SDS011;10442;49.932;11.592;2023-03-01T09:41:19;18.70;;;15.70;;
20567;SDS011;10442;49.932;11.592;2023-03-01T09:44:10;15.30;;;13.75;;
20567;SDS011;10442;49.932;11.592;2023-03-01T09:46:45;15.93;;;14.02;;
20567;SDS011;10442;49.932;11.592;2023-03-01T09:49:24;16.95;;;15.15;;
20567;SDS011;10442;49.932;11.592;2023-03-01T09:51:56;16.02;;;14.38;;
20567;SDS011;10442;49.932;11.592;2023-03-01T09:54:42;17.63;;;13.10;;
20567;SDS011;10442;49.932;11.592;2023-03-01T09:57:16;16.08;;;14.38;;
20567;SDS011;10442;49.932;11.592;2023-03-01T10:00:01;15.57;;;14.05;;
20567;SDS011;10442;49.932;11.592;2023-03-01T10:02:49;18.23;;;13.88;;
20567;SDS011;10442;49.932;11.592;2023-03-01T10:05:43;15.20;;;13.60;;
20567;SDS011;10442;49.932;11.592;2023-03-01T10:11:22;18.23;;;14.70;;
20567;SDS011;10442;49.932;11.592;2023-03-01T10:14:01;17.60;;;13.70;;
20567;SDS011;10442;49.932;11.592;2023-03-01T10:19:27;15.93;;;13.40;;
20567;SDS011;10442;49.932;11.592;2023-03-01T10:24:58;15.77;;;13.13;;
20567;SDS011;10442;49.932;11.592;2023-03-01T10:27:42;14.87;;;13.27;;
20567;SDS011;10442;49.932;11.592;2023-03-01T10:30:19;15.43;;;12.45;;
20567;SDS011;10442;49.932;11.592;2023-03-01T10:32:50;15.65;;;13.35;;
20567;SDS011;10442;49.932;11.592;2023-03-01T10:35:21;14.60;;;13.10;;
20567;SDS011;10442;49.932;11.592;2023-03-01T10:38:13;14.63;;;13.13;;
20567;SDS011;10442;49.932;11.592;2023-03-01T10:40:53;14.65;;;13.05;;
20567;SDS011;10442;49.932;11.592;2023-03-01T10:43:24;17.80;;;13.97;;
20567;SDS011;10442;49.932;11.592;2023-03-01T10:45:53;18.35;;;13.93;;
20567;SDS011;10442;49.932;11.592;2023-03-01T10:48:21;18.63;;;15.37;;
20567;SDS011;10442;49.932;11.592;2023-03-01T10:53:42;18.00;;;16.00;;
20567;SDS011;10442;49.932;11.592;2023-03-01T10:56:16;15.17;;;13.60;;
20567;SDS011;10442;49.932;11.592;2023-03-01T10:58:58;19.07;;;14.23;;
20567;SDS011;10442;49.932;11.592;2023-03-01T11:01:28;18.23;;;14.57;;
20567;SDS011;10442;49.932;11.592;2023-03-01T11:06:35;15.93;;;14.23;;
20567;SDS011;10442;49.932;11.592;2023-03-01T11:09:20;20.70;;;16.57;;
20567;SDS011;10442;49.932;11.592;2023-03-01T11:11:56;15.93;;;14.10;;
20567;SDS011;10442;49.932;11.592;2023-03-01T11:14:25;18.25;;;15.38;;
20567;SDS011;10442;49.932;11.592;2023-03-01T11:17:23;18.47;;;14.53;;
20567;SDS011;10442;49.932;11.592;2023-03-01T11:20:05;16.13;;;14.43;;
20567;SDS011;10442;49.932;11.592;2023-03-01T11:22:55;15.83;;;14.13;;
20567;SDS011;10442;49.932;11.592;2023-03-01T11:25:27;16.23;;;14.47;;
20567;SDS011;10442;49.932;11.592;2023-03-01T11:28:01;15.67;;;14.10;;
20567;SDS011;10442;49.932;11.592;2023-03-01T11:30:39;14.93;;;13.43;;
20567;SDS011;10442;49.932;11.592;2023-03-01T11:33:16;14.80;;;13.23;;
20567;SDS011;10442;49.932;11.592;2023-03-01T11:36:00;15.43;;;13.50;;
20567;SDS011;10442;49.932;11.592;2023-03-01T11:38:34;16.48;;;14.18;;
20567;SDS011;10442;49.932;11.592;2023-03-01T11:41:13;18.85;;;14.27;;
20567;SDS011;10442;49.932;11.592;2023-03-01T11:54:12;19.27;;;14.00;;
20567;SDS011;10442;49.932;11.592;2023-03-01T11:56:54;15.45;;;13.88;;
20567;SDS011;10442;49.932;11.592;2023-03-01T12:05:18;14.10;;;12.55;;
20567;SDS011;10442;49.932;11.592;2023-03-01T12:08:04;15.60;;;14.05;;
20567;SDS011;10442;49.932;11.592;2023-03-01T12:10:37;15.02;;;13.20;;
20567;SDS011;10442;49.932;11.592;2023-03-01T12:19:26;17.33;;;15.52;;
20567;SDS011;10442;49.932;11.592;2023-03-01T12:22:15;15.68;;;14.00;;
20567;SDS011;10442;49.932;11.592;2023-03-01T12:27:38;15.52;;;13.48;;
20567;SDS011;10442;49.932;11.592;2023-03-01T12:33:34;16.35;;;14.65;;
20567;SDS011;10442;49.932;11.592;2023-03-01T12:38:42;15.70;;;14.02;;
20567;SDS011;10442;49.932;11.592;2023-03-01T12:46:52;17.25;;;12.80;;
20567;SDS011;10442;49.932;11.592;2023-03-01T12:49:36;15.13;;;13.55;;
20567;SDS011;10442;49.932;11.592;2023-03-01T12:54:45;13.70;;;12.32;;
20567;SDS011;10442;49.932;11.592;2023-03-01T12:57:17;14.57;;;12.93;;
20567;SDS011;10442;49.932;11.592;2023-03-01T13:02:56;13.52;;;12.18;;
20567;SDS011;10442;49.932;11.592;2023-03-01T13:05:40;20.15;;;13.00;;
20567;SDS011;10442;49.932;11.592;2023-03-01T13:11:00;14.20;;;12.60;;
20567;SDS011;10442;49.932;11.592;2023-03-01T13:13:30;13.50;;;12.20;;
20567;SDS011;10442;49.932;11.592;2023-03-01T13:15:59;14.52;;;12.98;;
20567;SDS011;10442;49.932;11.592;2023-03-01T13:19:05;14.77;;;12.88;;
20567;SDS011;10442;49.932;11.592;2023-03-01T13:21:34;13.20;;;11.80;;
20567;SDS011;10442;49.932;11.592;2023-03-01T13:24:02;15.77;;;13.63;;
20567;SDS011;10442;49.932;11.592;2023-03-01T13:26:29;13.98;;;12.15;;
20567;SDS011;10442;49.932;11.592;2023-03-01T13:28:57;13.18;;;11.50;;
20567;SDS011;10442;49.932;11.592;2023-03-01T13:33:59;16.33;;;13.32;;
20567;SDS011;10442;49.932;11.592;2023-03-01T13:38:57;13.02;;;11.63;;
20567;SDS011;10442;49.932;11.592;2023-03-01T13:44:49;13.77;;;11.68;;
20567;SDS011;10442;49.932;11.592;2023-03-01T13:49:47;16.83;;;13.57;;
20567;SDS011;10442;49.932;11.592;2023-03-01T13:52:30;12.48;;;11.18;;
20567;SDS011;10442;49.932;11.592;2023-03-01T13:57:43;15.85;;;12.15;;
20567;SDS011;10442;49.932;11.592;2023-03-01T14:03:02;13.60;;;12.15;;
20567;SDS011;10442;49.932;11.592;2023-03-01T14:05:33;14.15;;;12.63;;
20567;SDS011;10442;49.932;11.592;2023-03-01T14:08:01;13.02;;;11.60;;
20567;SDS011;10442;49.932;11.592;2023-03-01T14:10:36;14.57;;;12.82;;
20567;SDS011;10442;49.932;11.592;2023-03-01T14:13:21;11.98;;;10.85;;
20567;SDS011;10442;49.932;11.592;2023-03-01T14:16:39;12.07;;;10.57;;
20567;SDS011;10442;49.932;11.592;2023-03-01T14:24:46;15.02;;;11.52;;
20567;SDS011;10442;49.932;11.592;2023-03-01T14:27:16;14.38;;;12.60;;
20567;SDS011;10442;49.932;11.592;2023-03-01T14:29:44;12.93;;;11.00;;
20567;SDS011;10442;49.932;11.592;2023-03-01T14:32:24;12.38;;;11.05;;
20567;SDS011;10442;49.932;11.592;2023-03-01T14:34:53;11.90;;;10.63;;
20567;SDS011;10442;49.932;11.592;2023-03-01T14:37:25;12.73;;;10.43;;
20567;SDS011;10442;49.932;11.592;2023-03-01T14:39:56;10.90;;;9.77;;
20567;SDS011;10442;49.932;11.592;2023-03-01T14:42:26;10.52;;;9.55;;
20567;SDS011;10442;49.932;11.592;2023-03-01T14:45:01;10.98;;;9.85;;
20567;SDS011;10442;49.932;11.592;2023-03-01T14:47:32;14.48;;;13.00;;
20567;SDS011;10442;49.932;11.592;2023-03-01T14:50:24;13.82;;;12.43;;
20567;SDS011;10442;49.932;11.592;2023-03-01T14:52:57;16.98;;;15.25;;
20567;SDS011;10442;49.932;11.592;2023-03-01T14:55:37;15.35;;;13.75;;
20567;SDS011;10442;49.932;11.592;2023-03-01T14:58:15;17.67;;;14.52;;
20567;SDS011;10442;49.932;11.592;2023-03-01T15:00:55;16.45;;;13.80;;
20567;SDS011;10442;49.932;11.592;2023-03-01T15:04:02;16.10;;;14.40;;
20567;SDS011;10442;49.932;11.592;2023-03-01T15:06:22;17.30;;;15.55;;
20567;SDS011;10442;49.932;11.592;2023-03-01T15:08:52;18.90;;;16.70;;
20567;SDS011;10442;49.932;11.592;2023-03-01T15:11:23;20.70;;;15.57;;
20567;SDS011;10442;49.932;11.592;2023-03-01T15:13:56;20.65;;;16.27;;
20567;SDS011;10442;49.932;11.592;2023-03-01T15:16:31;18.95;;;16.60;;
20567;SDS011;10442;49.932;11.592;2023-03-01T15:19:02;20.48;;;18.27;;
20567;SDS011;10442;49.932;11.592;2023-03-01T15:21:38;19.93;;;16.97;;
20567;SDS011;10442;49.932;11.592;2023-03-01T15:24:25;19.10;;;16.65;;
20567;SDS011;10442;49.932;11.592;2023-03-01T15:27:00;23.47;;;20.50;;
20567;SDS011;10442;49.932;11.592;2023-03-01T15:29:33;20.47;;;17.57;;
20567;SDS011;10442;49.932;11.592;2023-03-01T15:32:30;22.98;;;20.42;;
20567;SDS011;10442;49.932;11.592;2023-03-01T15:35:00;21.37;;;19.17;;
20567;SDS011;10442;49.932;11.592;2023-03-01T15:37:48;21.40;;;17.92;;
20567;SDS011;10442;49.932;11.592;2023-03-01T15:40:26;20.50;;;18.40;;
20567;SDS011;10442;49.932;11.592;2023-03-01T15:42:59;19.47;;;17.53;;
20567;SDS011;10442;49.932;11.592;2023-03-01T15:45:28;23.17;;;20.13;;
20567;SDS011;10442;49.932;11.592;2023-03-01T15:47:59;21.43;;;18.90;;
20567;SDS011;10442;49.932;11.592;2023-03-01T15:50:33;24.27;;;19.83;;
20567;SDS011;10442;49.932;11.592;2023-03-01T15:53:04;19.77;;;17.63;;
20567;SDS011;10442;49.932;11.592;2023-03-01T15:55:34;20.23;;;18.27;;
20567;SDS011;10442;49.932;11.592;2023-03-01T15:58:18;25.03;;;19.90;;
20567;SDS011;10442;49.932;11.592;2023-03-01T16:00:47;24.93;;;19.17;;
20567;SDS011;10442;49.932;11.592;2023-03-01T16:03:27;23.20;;;20.67;;
20567;SDS011;10442;49.932;11.592;2023-03-01T16:05:55;22.80;;;19.53;;
20567;SDS011;10442;49.932;11.592;2023-03-01T16:08:22;23.87;;;20.13;;
20567;SDS011;10442;49.932;11.592;2023-03-01T16:10:50;23.60;;;18.57;;